sensor_id;sensor_type;location;lat;lon;timestamp;pressure;altitude;pressure_sealevel;temperature;humidity
10348;BME280;5220;43.192;23.284;2023-02-12T00:02:25;97980.47;;;-0.80;100.00
10348;BME280;5220;43.192;23.284;2023-02-12T00:04:52;97970.94;;;-0.67;100.00
10348;BME280;5220;43.192;23.284;2023-02-12T00:07:18;97971.16;;;-0.85;100.00
10348;BME280;5220;43.192;23.284;2023-02-12T00:09:45;97966.09;;;-0.88;100.00
10348;BME280;5220;43.192;23.284;2023-02-12T00:12:12;97975.28;;;-0.72;100.00
10348;BME280;5220;43.192;23.284;2023-02-12T00:14:38;97976.09;;;-0.69;100.00
10348;BME280;5220;43.192;23.284;2023-02-12T00:17:06;97984.41;;;-0.53;100.00
10348;BME280;5220;43.192;23.284;2023-02-12T00:19:33;97984.31;;;-0.47;100.00
10348;BME280;5220;43.192;23.284;2023-02-12T00:22:00;97990.50;;;-0.63;100.00
10348;BME280;5220;43.192;23.284;2023-02-12T00:24:26;97990.56;;;-0.71;100.00
10348;BME280;5220;43.192;23.284;2023-02-12T00:26:53;97996.41;;;-0.61;100.00
10348;BME280;5220;43.192;23.284;2023-02-12T00:29:20;97993.78;;;-0.53;100.00
10348;BME280;5220;43.192;23.284;2023-02-12T00:31:47;98010.88;;;-0.60;100.00
10348;BME280;5220;43.192;23.284;2023-02-12T00:34:15;98009.16;;;-0.58;100.00
10348;BME280;5220;43.192;23.284;2023-02-12T00:36:41;98018.41;;;-1.26;100.00
10348;BME280;5220;43.192;23.284;2023-02-12T00:39:08;98016.31;;;-0.87;100.00
10348;BME280;5220;43.192;23.284;2023-02-12T00:41:36;98020.44;;;-0.77;100.00
10348;BME280;5220;43.192;23.284;2023-02-12T00:44:03;98016.91;;;-0.66;100.00
10348;BME280;5220;43.192;23.284;2023-02-12T00:46:29;98018.81;;;-0.81;100.00
10348;BME280;5220;43.192;23.284;2023-02-12T00:48:56;98009.63;;;-0.99;100.00
10348;BME280;5220;43.192;23.284;2023-02-12T00:51:24;98006.97;;;-0.88;100.00
10348;BME280;5220;43.192;23.284;2023-02-12T00:53:51;97994.91;;;-0.76;100.00
10348;BME280;5220;43.192;23.284;2023-02-12T00:56:17;97999.22;;;-0.84;100.00
10348;BME280;5220;43.192;23.284;2023-02-12T00:58:44;97986.47;;;-0.84;100.00
10348;BME280;5220;43.192;23.284;2023-02-12T01:01:11;97978.69;;;-0.75;100.00
10348;BME280;5220;43.192;23.284;2023-02-12T01:03:37;97978.44;;;-0.55;100.00
10348;BME280;5220;43.192;23.284;2023-02-12T01:06:04;97973.09;;;-0.37;100.00
10348;BME280;5220;43.192;23.284;2023-02-12T01:08:33;97968.72;;;-0.29;100.00
10348;BME280;5220;43.192;23.284;2023-02-12T01:11:01;97972.81;;;-0.19;100.00
10348;BME280;5220;43.192;23.284;2023-02-12T01:13:29;97950.63;;;-0.14;100.00
10348;BME280;5220;43.192;23.284;2023-02-12T01:16:03;97944.59;;;-0.10;100.00
10348;BME280;5220;43.192;23.284;2023-02-12T01:18:31;97952.88;;;0.05;100.00
10348;BME280;5220;43.192;23.284;2023-02-12T01:20:57;97945.09;;;0.12;100.00
10348;BME280;5220;43.192;23.284;2023-02-12T01:23:24;97952.47;;;0.30;100.00
10348;BME280;5220;43.192;23.284;2023-02-12T01:25:52;97952.22;;;0.45;100.00
10348;BME280;5220;43.192;23.284;2023-02-12T01:28:19;97953.69;;;0.57;100.00
10348;BME280;5220;43.192;23.284;2023-02-12T01:30:45;97954.44;;;0.64;100.00
10348;BME280;5220;43.192;23.284;2023-02-12T01:33:12;97946.97;;;0.51;100.00
10348;BME280;5220;43.192;23.284;2023-02-12T01:35:39;97946.06;;;0.56;100.00
10348;BME280;5220;43.192;23.284;2023-02-12T01:38:06;97940.91;;;0.57;100.00
10348;BME280;5220;43.192;23.284;2023-02-12T01:40:32;97946.13;;;0.51;100.00
10348;BME280;5220;43.192;23.284;2023-02-12T01:43:03;97939.53;;;0.39;100.00
10348;BME280;5220;43.192;23.284;2023-02-12T01:45:49;97923.88;;;0.56;100.00
10348;BME280;5220;43.192;23.284;2023-02-12T01:48:19;97934.94;;;0.57;100.00
10348;BME280;5220;43.192;23.284;2023-02-12T01:50:48;97929.69;;;0.64;100.00
10348;BME280;5220;43.192;23.284;2023-02-12T01:53:17;97939.19;;;0.58;100.00
10348;BME280;5220;43.192;23.284;2023-02-12T01:55:49;97922.03;;;0.63;100.00
10348;BME280;5220;43.192;23.284;2023-02-12T01:58:19;97920.19;;;0.71;100.00
10348;BME280;5220;43.192;23.284;2023-02-12T02:00:46;97928.50;;;0.82;100.00
10348;BME280;5220;43.192;23.284;2023-02-12T02:03:13;97918.13;;;0.88;100.00
10348;BME280;5220;43.192;23.284;2023-02-12T02:05:46;97922.25;;;0.96;100.00
10348;BME280;5220;43.192;23.284;2023-02-12T02:08:15;97927.44;;;0.93;100.00
10348;BME280;5220;43.192;23.284;2023-02-12T02:10:42;97934.16;;;0.99;100.00
10348;BME280;5220;43.192;23.284;2023-02-12T02:13:09;97936.16;;;0.83;100.00
10348;BME280;5220;43.192;23.284;2023-02-12T02:15:57;97936.72;;;0.97;100.00
10348;BME280;5220;43.192;23.284;2023-02-12T02:18:30;97938.44;;;0.97;100.00
10348;BME280;5220;43.192;23.284;2023-02-12T02:21:16;97935.69;;;1.07;100.00
10348;BME280;5220;43.192;23.284;2023-02-12T02:24:25;97938.19;;;1.11;100.00
10348;BME280;5220;43.192;23.284;2023-02-12T02:27:15;97940.75;;;1.11;100.00
10348;BME280;5220;43.192;23.284;2023-02-12T02:33:09;97944.03;;;1.16;100.00
10348;BME280;5220;43.192;23.284;2023-02-12T02:35:43;97943.63;;;0.94;100.00
10348;BME280;5220;43.192;23.284;2023-02-12T02:38:23;97939.03;;;1.11;100.00
10348;BME280;5220;43.192;23.284;2023-02-12T02:41:00;97928.00;;;1.07;100.00
10348;BME280;5220;43.192;23.284;2023-02-12T02:43:31;97931.91;;;1.25;100.00
10348;BME280;5220;43.192;23.284;2023-02-12T02:46:01;97928.28;;;1.35;100.00
10348;BME280;5220;43.192;23.284;2023-02-12T02:48:35;97934.97;;;1.42;100.00
10348;BME280;5220;43.192;23.284;2023-02-12T02:51:08;97931.81;;;1.30;100.00
10348;BME280;5220;43.192;23.284;2023-02-12T02:53:38;97936.69;;;1.42;100.00
10348;BME280;5220;43.192;23.284;2023-02-12T02:56:11;97931.56;;;1.42;100.00
10348;BME280;5220;43.192;23.284;2023-02-12T02:58:43;97929.78;;;1.44;100.00
10348;BME280;5220;43.192;23.284;2023-02-12T03:01:15;97930.56;;;1.49;100.00
10348;BME280;5220;43.192;23.284;2023-02-12T03:03:48;97940.69;;;1.55;100.00
10348;BME280;5220;43.192;23.284;2023-02-12T03:06:21;97927.72;;;1.61;100.00
10348;BME280;5220;43.192;23.284;2023-02-12T03:08:54;97926.66;;;1.70;100.00
10348;BME280;5220;43.192;23.284;2023-02-12T03:11:24;97929.22;;;1.70;100.00
10348;BME280;5220;43.192;23.284;2023-02-12T03:13:55;97922.53;;;1.64;100.00
10348;BME280;5220;43.192;23.284;2023-02-12T03:16:24;97932.66;;;1.70;100.00
10348;BME280;5220;43.192;23.284;2023-02-12T03:18:55;97925.72;;;1.74;100.00
10348;BME280;5220;43.192;23.284;2023-02-12T03:21:29;97930.66;;;1.83;100.00
10348;BME280;5220;43.192;23.284;2023-02-12T03:24:00;97928.81;;;1.88;100.00
10348;BME280;5220;43.192;23.284;2023-02-12T03:26:37;97923.88;;;1.80;100.00
10348;BME280;5220;43.192;23.284;2023-02-12T03:29:06;97935.88;;;1.78;100.00
10348;BME280;5220;43.192;23.284;2023-02-12T03:31:38;97934.00;;;1.85;100.00
10348;BME280;5220;43.192;23.284;2023-02-12T03:34:12;97927.16;;;1.85;100.00
10348;BME280;5220;43.192;23.284;2023-02-12T03:36:47;97937.28;;;1.91;100.00
10348;BME280;5220;43.192;23.284;2023-02-12T03:39:24;97929.41;;;1.99;100.00
10348;BME280;5220;43.192;23.284;2023-02-12T03:42:00;97932.00;;;1.99;100.00
10348;BME280;5220;43.192;23.284;2023-02-12T03:44:38;97928.44;;;2.04;100.00
10348;BME280;5220;43.192;23.284;2023-02-12T03:47:18;97930.84;;;2.10;100.00
10348;BME280;5220;43.192;23.284;2023-02-12T03:49:52;97927.50;;;2.07;100.00
10348;BME280;5220;43.192;23.284;2023-02-12T03:52:21;97934.50;;;2.00;100.00
10348;BME280;5220;43.192;23.284;2023-02-12T03:54:48;97935.19;;;2.08;100.00
10348;BME280;5220;43.192;23.284;2023-02-12T03:57:19;97930.25;;;1.99;100.00
10348;BME280;5220;43.192;23.284;2023-02-12T03:59:47;97933.41;;;2.10;100.00
10348;BME280;5220;43.192;23.284;2023-02-12T04:02:15;97935.38;;;1.99;100.00
10348;BME280;5220;43.192;23.284;2023-02-12T04:04:44;97925.19;;;1.96;100.00
10348;BME280;5220;43.192;23.284;2023-02-12T04:07:14;97933.56;;;2.04;100.00
10348;BME280;5220;43.192;23.284;2023-02-12T04:09:41;97935.19;;;2.07;100.00
10348;BME280;5220;43.192;23.284;2023-02-12T04:12:27;97942.88;;;2.08;100.00
10348;BME280;5220;43.192;23.284;2023-02-12T04:15:13;97947.81;;;2.16;100.00
10348;BME280;5220;43.192;23.284;2023-02-12T04:17:49;97948.81;;;2.10;100.00
10348;BME280;5220;43.192;23.284;2023-02-12T04:20:25;97945.31;;;2.14;100.00
10348;BME280;5220;43.192;23.284;2023-02-12T04:23:12;97949.38;;;2.22;100.00
10348;BME280;5220;43.192;23.284;2023-02-12T04:25:50;97958.81;;;2.21;100.00
10348;BME280;5220;43.192;23.284;2023-02-12T04:28:26;97964.78;;;2.22;100.00
10348;BME280;5220;43.192;23.284;2023-02-12T04:30:56;97958.72;;;2.26;100.00
10348;BME280;5220;43.192;23.284;2023-02-12T04:33:27;97972.34;;;2.28;100.00
10348;BME280;5220;43.192;23.284;2023-02-12T04:36:00;97972.19;;;1.98;100.00
10348;BME280;5220;43.192;23.284;2023-02-12T04:38:33;97983.72;;;2.17;100.00
10348;BME280;5220;43.192;23.284;2023-02-12T04:41:04;97978.41;;;2.25;100.00
10348;BME280;5220;43.192;23.284;2023-02-12T04:43:33;97993.34;;;2.08;100.00
10348;BME280;5220;43.192;23.284;2023-02-12T04:46:00;97999.78;;;1.89;100.00
10348;BME280;5220;43.192;23.284;2023-02-12T04:48:27;98002.69;;;1.72;100.00
10348;BME280;5220;43.192;23.284;2023-02-12T04:50:54;97998.19;;;1.83;100.00
10348;BME280;5220;43.192;23.284;2023-02-12T04:53:21;98003.91;;;1.94;100.00
10348;BME280;5220;43.192;23.284;2023-02-12T04:55:49;97990.88;;;2.03;100.00
10348;BME280;5220;43.192;23.284;2023-02-12T04:58:16;97998.22;;;2.18;100.00
10348;BME280;5220;43.192;23.284;2023-02-12T05:00:43;97998.91;;;2.27;100.00
10348;BME280;5220;43.192;23.284;2023-02-12T05:03:10;97997.44;;;2.15;100.00
10348;BME280;5220;43.192;23.284;2023-02-12T05:05:37;97997.19;;;2.27;100.00
10348;BME280;5220;43.192;23.284;2023-02-12T05:08:03;98002.13;;;2.35;100.00
10348;BME280;5220;43.192;23.284;2023-02-12T05:10:30;97996.91;;;2.38;100.00
10348;BME280;5220;43.192;23.284;2023-02-12T05:12:58;98002.69;;;2.47;100.00
10348;BME280;5220;43.192;23.284;2023-02-12T05:15:25;98004.25;;;2.53;100.00
10348;BME280;5220;43.192;23.284;2023-02-12T05:17:52;98013.81;;;2.48;100.00
10348;BME280;5220;43.192;23.284;2023-02-12T05:20:19;98009.09;;;2.30;100.00
10348;BME280;5220;43.192;23.284;2023-02-12T05:22:45;98024.22;;;2.05;100.00
10348;BME280;5220;43.192;23.284;2023-02-12T05:25:16;98010.19;;;2.20;100.00
10348;BME280;5220;43.192;23.284;2023-02-12T05:27:43;98016.75;;;2.31;100.00
10348;BME280;5220;43.192;23.284;2023-02-12T05:30:11;98013.13;;;2.40;100.00
10348;BME280;5220;43.192;23.284;2023-02-12T05:32:38;98008.72;;;2.45;100.00
10348;BME280;5220;43.192;23.284;2023-02-12T05:35:06;98009.31;;;2.56;100.00
10348;BME280;5220;43.192;23.284;2023-02-12T05:37:33;98006.75;;;2.56;100.00
10348;BME280;5220;43.192;23.284;2023-02-12T05:40:00;98009.59;;;2.45;100.00
10348;BME280;5220;43.192;23.284;2023-02-12T05:42:28;98006.63;;;2.60;100.00
10348;BME280;5220;43.192;23.284;2023-02-12T05:44:55;98005.00;;;2.58;100.00
10348;BME280;5220;43.192;23.284;2023-02-12T05:47:23;98002.44;;;2.58;100.00
10348;BME280;5220;43.192;23.284;2023-02-12T05:49:50;98010.69;;;2.69;100.00
10348;BME280;5220;43.192;23.284;2023-02-12T05:52:17;98014.06;;;2.71;100.00
10348;BME280;5220;43.192;23.284;2023-02-12T05:54:43;98008.28;;;2.63;100.00
10348;BME280;5220;43.192;23.284;2023-02-12T05:57:10;98008.66;;;2.48;100.00
10348;BME280;5220;43.192;23.284;2023-02-12T05:59:37;98003.72;;;2.74;100.00
10348;BME280;5220;43.192;23.284;2023-02-12T06:02:03;98013.19;;;2.37;100.00
10348;BME280;5220;43.192;23.284;2023-02-12T06:04:31;98005.72;;;2.63;100.00
10348;BME280;5220;43.192;23.284;2023-02-12T06:06:59;98006.16;;;2.80;100.00
10348;BME280;5220;43.192;23.284;2023-02-12T06:09:26;98016.19;;;2.89;100.00
10348;BME280;5220;43.192;23.284;2023-02-12T06:11:53;98015.97;;;2.97;100.00
10348;BME280;5220;43.192;23.284;2023-02-12T06:14:20;98018.53;;;2.98;100.00
10348;BME280;5220;43.192;23.284;2023-02-12T06:16:49;98011.50;;;3.05;100.00
10348;BME280;5220;43.192;23.284;2023-02-12T06:19:17;98018.31;;;3.06;100.00
10348;BME280;5220;43.192;23.284;2023-02-12T06:21:45;98021.97;;;2.97;100.00
10348;BME280;5220;43.192;23.284;2023-02-12T06:24:14;98024.63;;;2.94;100.00
10348;BME280;5220;43.192;23.284;2023-02-12T06:26:41;98018.75;;;2.89;100.00
10348;BME280;5220;43.192;23.284;2023-02-12T06:29:08;98032.16;;;3.00;100.00
10348;BME280;5220;43.192;23.284;2023-02-12T06:31:35;98023.50;;;3.04;100.00
10348;BME280;5220;43.192;23.284;2023-02-12T06:34:04;98023.44;;;3.06;100.00
10348;BME280;5220;43.192;23.284;2023-02-12T06:36:32;98040.38;;;3.14;100.00
10348;BME280;5220;43.192;23.284;2023-02-12T06:39:01;98029.09;;;3.20;100.00
10348;BME280;5220;43.192;23.284;2023-02-12T06:41:28;98038.38;;;3.24;100.00
10348;BME280;5220;43.192;23.284;2023-02-12T06:43:54;98040.06;;;3.27;100.00
10348;BME280;5220;43.192;23.284;2023-02-12T06:46:21;98038.28;;;3.29;100.00
10348;BME280;5220;43.192;23.284;2023-02-12T06:48:51;98042.47;;;3.33;100.00
10348;BME280;5220;43.192;23.284;2023-02-12T06:51:19;98048.38;;;3.35;100.00
10348;BME280;5220;43.192;23.284;2023-02-12T06:53:46;98050.88;;;3.38;100.00
10348;BME280;5220;43.192;23.284;2023-02-12T06:56:14;98049.94;;;3.40;100.00
10348;BME280;5220;43.192;23.284;2023-02-12T06:58:45;98057.66;;;3.40;100.00
10348;BME280;5220;43.192;23.284;2023-02-12T07:01:14;98067.88;;;3.43;100.00
10348;BME280;5220;43.192;23.284;2023-02-12T07:03:43;98060.16;;;3.43;100.00
10348;BME280;5220;43.192;23.284;2023-02-12T07:06:12;98070.41;;;3.45;100.00
10348;BME280;5220;43.192;23.284;2023-02-12T07:08:39;98065.44;;;3.39;100.00
10348;BME280;5220;43.192;23.284;2023-02-12T07:11:06;98068.78;;;3.41;100.00
10348;BME280;5220;43.192;23.284;2023-02-12T07:13:35;98081.47;;;3.48;100.00
10348;BME280;5220;43.192;23.284;2023-02-12T07:16:03;98077.09;;;3.52;100.00
10348;BME280;5220;43.192;23.284;2023-02-12T07:18:30;98083.81;;;3.56;100.00
10348;BME280;5220;43.192;23.284;2023-02-12T07:20:58;98089.78;;;3.58;100.00
10348;BME280;5220;43.192;23.284;2023-02-12T07:23:25;98097.34;;;3.64;100.00
10348;BME280;5220;43.192;23.284;2023-02-12T07:25:55;98087.78;;;3.67;100.00
10348;BME280;5220;43.192;23.284;2023-02-12T07:28:22;98093.56;;;3.75;100.00
10348;BME280;5220;43.192;23.284;2023-02-12T07:30:50;98093.34;;;3.83;100.00
10348;BME280;5220;43.192;23.284;2023-02-12T07:33:17;98094.00;;;3.90;100.00
10348;BME280;5220;43.192;23.284;2023-02-12T07:35:43;98098.97;;;3.97;100.00
10348;BME280;5220;43.192;23.284;2023-02-12T07:38:10;98099.66;;;4.02;100.00
10348;BME280;5220;43.192;23.284;2023-02-12T07:40:37;98103.75;;;4.09;100.00
10348;BME280;5220;43.192;23.284;2023-02-12T07:43:04;98096.78;;;4.13;100.00
10348;BME280;5220;43.192;23.284;2023-02-12T07:45:31;98103.44;;;4.20;100.00
10348;BME280;5220;43.192;23.284;2023-02-12T07:47:59;98099.88;;;4.24;100.00
10348;BME280;5220;43.192;23.284;2023-02-12T07:50:26;98101.38;;;4.31;100.00
10348;BME280;5220;43.192;23.284;2023-02-12T07:52:52;98104.66;;;4.36;100.00
10348;BME280;5220;43.192;23.284;2023-02-12T07:55:19;98097.66;;;4.41;100.00
10348;BME280;5220;43.192;23.284;2023-02-12T07:57:46;98102.56;;;4.49;100.00
10348;BME280;5220;43.192;23.284;2023-02-12T08:00:13;98111.00;;;4.54;100.00
10348;BME280;5220;43.192;23.284;2023-02-12T08:02:40;98110.94;;;4.55;100.00
10348;BME280;5220;43.192;23.284;2023-02-12T08:05:08;98118.50;;;4.61;100.00
10348;BME280;5220;43.192;23.284;2023-02-12T08:07:35;98118.28;;;4.67;100.00
10348;BME280;5220;43.192;23.284;2023-02-12T08:10:02;98117.31;;;4.71;100.00
10348;BME280;5220;43.192;23.284;2023-02-12T08:12:29;98118.94;;;4.74;100.00
10348;BME280;5220;43.192;23.284;2023-02-12T08:14:55;98121.44;;;4.77;100.00
10348;BME280;5220;43.192;23.284;2023-02-12T08:17:22;98125.75;;;4.76;100.00
10348;BME280;5220;43.192;23.284;2023-02-12T08:19:49;98131.66;;;4.80;100.00
10348;BME280;5220;43.192;23.284;2023-02-12T08:22:17;98136.59;;;4.86;100.00
10348;BME280;5220;43.192;23.284;2023-02-12T08:24:44;98134.84;;;4.88;100.00
10348;BME280;5220;43.192;23.284;2023-02-12T08:27:10;98134.84;;;4.88;100.00
10348;BME280;5220;43.192;23.284;2023-02-12T08:29:37;98154.47;;;4.92;100.00
10348;BME280;5220;43.192;23.284;2023-02-12T08:32:04;98147.56;;;4.93;100.00
10348;BME280;5220;43.192;23.284;2023-02-12T08:34:35;98158.81;;;4.92;100.00
10348;BME280;5220;43.192;23.284;2023-02-12T08:37:03;98160.38;;;4.96;100.00
10348;BME280;5220;43.192;23.284;2023-02-12T08:39:32;98174.13;;;4.96;100.00
10348;BME280;5220;43.192;23.284;2023-02-12T08:41:59;98170.84;;;4.91;100.00
10348;BME280;5220;43.192;23.284;2023-02-12T08:44:26;98186.50;;;4.85;100.00
10348;BME280;5220;43.192;23.284;2023-02-12T08:46:53;98182.78;;;4.94;100.00
10348;BME280;5220;43.192;23.284;2023-02-12T08:49:22;98190.34;;;5.00;100.00
10348;BME280;5220;43.192;23.284;2023-02-12T08:51:51;98184.19;;;5.04;100.00
10348;BME280;5220;43.192;23.284;2023-02-12T08:54:19;98188.22;;;5.12;100.00
10348;BME280;5220;43.192;23.284;2023-02-12T08:56:48;98190.59;;;5.18;100.00
10348;BME280;5220;43.192;23.284;2023-02-12T08:59:16;98193.03;;;5.23;100.00
10348;BME280;5220;43.192;23.284;2023-02-12T09:01:43;98199.88;;;5.24;100.00
10348;BME280;5220;43.192;23.284;2023-02-12T09:04:13;98192.03;;;5.27;100.00
10348;BME280;5220;43.192;23.284;2023-02-12T09:06:43;98203.16;;;5.29;100.00
10348;BME280;5220;43.192;23.284;2023-02-12T09:09:10;98200.72;;;5.24;100.00
10348;BME280;5220;43.192;23.284;2023-02-12T09:11:37;98205.09;;;5.22;100.00
10348;BME280;5220;43.192;23.284;2023-02-12T09:14:07;98210.47;;;5.15;100.00
10348;BME280;5220;43.192;23.284;2023-02-12T09:16:35;98214.59;;;5.20;100.00
10348;BME280;5220;43.192;23.284;2023-02-12T09:19:04;98221.25;;;5.27;100.00
10348;BME280;5220;43.192;23.284;2023-02-12T09:21:30;98223.81;;;5.29;100.00
10348;BME280;5220;43.192;23.284;2023-02-12T09:23:57;98217.53;;;5.36;100.00
10348;BME280;5220;43.192;23.284;2023-02-12T09:26:24;98227.66;;;5.42;100.00
10348;BME280;5220;43.192;23.284;2023-02-12T09:28:52;98229.22;;;5.48;100.00
10348;BME280;5220;43.192;23.284;2023-02-12T09:31:22;98226.34;;;5.57;100.00
10348;BME280;5220;43.192;23.284;2023-02-12T09:33:51;98223.34;;;5.69;100.00
10348;BME280;5220;43.192;23.284;2023-02-12T09:36:18;98221.25;;;5.80;100.00
10348;BME280;5220;43.192;23.284;2023-02-12T09:38:45;98226.94;;;5.91;100.00
10348;BME280;5220;43.192;23.284;2023-02-12T09:41:50;98232.44;;;6.05;100.00
10348;BME280;5220;43.192;23.284;2023-02-12T09:44:21;98245.97;;;6.13;100.00
10348;BME280;5220;43.192;23.284;2023-02-12T09:46:56;98240.69;;;6.16;100.00
10348;BME280;5220;43.192;23.284;2023-02-12T09:49:37;98240.47;;;6.22;100.00
10348;BME280;5220;43.192;23.284;2023-02-12T09:52:12;98240.41;;;6.24;100.00
10348;BME280;5220;43.192;23.284;2023-02-12T09:54:40;98237.81;;;6.24;100.00
10348;BME280;5220;43.192;23.284;2023-02-12T09:57:15;98241.72;;;6.35;100.00
10348;BME280;5220;43.192;23.284;2023-02-12T09:59:47;98239.94;;;6.37;100.00
10348;BME280;5220;43.192;23.284;2023-02-12T10:02:18;98240.28;;;6.04;100.00
10348;BME280;5220;43.192;23.284;2023-02-12T10:04:47;98246.63;;;5.93;100.00
10348;BME280;5220;43.192;23.284;2023-02-12T10:07:22;98246.97;;;6.09;100.00
10348;BME280;5220;43.192;23.284;2023-02-12T10:10:04;98245.56;;;6.24;100.00
10348;BME280;5220;43.192;23.284;2023-02-12T10:12:38;98262.59;;;6.05;100.00
10348;BME280;5220;43.192;23.284;2023-02-12T10:15:15;98255.34;;;5.91;100.00
10348;BME280;5220;43.192;23.284;2023-02-12T10:17:53;98270.22;;;5.57;100.00
10348;BME280;5220;43.192;23.284;2023-02-12T10:26:30;98261.25;;;5.94;100.00
10348;BME280;5220;43.192;23.284;2023-02-12T10:29:03;98264.81;;;5.90;100.00
10348;BME280;5220;43.192;23.284;2023-02-12T10:31:37;98271.47;;;5.70;100.00
10348;BME280;5220;43.192;23.284;2023-02-12T10:34:14;98273.91;;;5.76;100.00
10348;BME280;5220;43.192;23.284;2023-02-12T10:36:44;98269.19;;;5.34;100.00
10348;BME280;5220;43.192;23.284;2023-02-12T10:39:15;98269.00;;;5.40;100.00
10348;BME280;5220;43.192;23.284;2023-02-12T10:41:46;98280.13;;;5.42;100.00
10348;BME280;5220;43.192;23.284;2023-02-12T10:44:15;98271.47;;;5.70;100.00
10348;BME280;5220;43.192;23.284;2023-02-12T10:46:42;98271.47;;;5.70;100.00
10348;BME280;5220;43.192;23.284;2023-02-12T10:49:13;98261.44;;;5.88;100.00
10348;BME280;5220;43.192;23.284;2023-02-12T10:52:04;98269.50;;;5.78;100.00
10348;BME280;5220;43.192;23.284;2023-02-12T10:54:40;98275.00;;;5.67;100.00
10348;BME280;5220;43.192;23.284;2023-02-12T10:57:13;98281.63;;;5.76;100.00
10348;BME280;5220;43.192;23.284;2023-02-12T10:59:41;98281.81;;;5.70;100.00
10348;BME280;5220;43.192;23.284;2023-02-12T11:02:20;98289.28;;;5.51;100.00
10348;BME280;5220;43.192;23.284;2023-02-12T11:04:48;98282.09;;;5.34;100.00
10348;BME280;5220;43.192;23.284;2023-02-12T11:07:16;98288.03;;;5.36;100.00
10348;BME280;5220;43.192;23.284;2023-02-12T11:09:44;98286.28;;;5.38;100.00
10348;BME280;5220;43.192;23.284;2023-02-12T11:12:38;98288.72;;;5.43;100.00
10348;BME280;5220;43.192;23.284;2023-02-12T11:15:13;98294.19;;;5.60;100.00
10348;BME280;5220;43.192;23.284;2023-02-12T11:17:43;98288.63;;;5.72;100.00
10348;BME280;5220;43.192;23.284;2023-02-12T11:20:23;98296.78;;;5.86;100.00
10348;BME280;5220;43.192;23.284;2023-02-12T11:22:53;98296.66;;;5.91;100.00
10348;BME280;5220;43.192;23.284;2023-02-12T11:25:22;98298.66;;;6.08;100.00
10348;BME280;5220;43.192;23.284;2023-02-12T11:28:00;98300.72;;;6.23;100.00
10348;BME280;5220;43.192;23.284;2023-02-12T11:30:28;98301.69;;;6.20;100.00
10348;BME280;5220;43.192;23.284;2023-02-12T11:33:13;98300.56;;;6.27;100.00
10348;BME280;5220;43.192;23.284;2023-02-12T11:35:50;98305.94;;;6.46;100.00
10348;BME280;5220;43.192;23.284;2023-02-12T11:38:23;98294.97;;;6.64;100.00
10348;BME280;5220;43.192;23.284;2023-02-12T11:40:55;98300.41;;;6.80;100.00
10348;BME280;5220;43.192;23.284;2023-02-12T11:43:23;98293.00;;;6.94;100.00
10348;BME280;5220;43.192;23.284;2023-02-12T11:45:52;98304.75;;;7.02;100.00
10348;BME280;5220;43.192;23.284;2023-02-12T11:48:22;98292.19;;;7.15;100.00
10348;BME280;5220;43.192;23.284;2023-02-12T11:50:54;98292.19;;;7.15;100.00
10348;BME280;5220;43.192;23.284;2023-02-12T11:53:23;98300.34;;;7.28;100.00
10348;BME280;5220;43.192;23.284;2023-02-12T11:55:53;98294.84;;;7.35;99.55
10348;BME280;5220;43.192;23.284;2023-02-12T11:58:23;98291.97;;;7.43;99.66
10348;BME280;5220;43.192;23.284;2023-02-12T12:00:55;98295.06;;;7.52;97.55
10348;BME280;5220;43.192;23.284;2023-02-12T12:03:27;98293.84;;;7.61;95.77
10348;BME280;5220;43.192;23.284;2023-02-12T12:06:00;98294.72;;;7.60;96.74
10348;BME280;5220;43.192;23.284;2023-02-12T12:08:32;98288.41;;;7.67;95.51
10348;BME280;5220;43.192;23.284;2023-02-12T12:11:04;98289.78;;;7.76;95.74
10348;BME280;5220;43.192;23.284;2023-02-12T12:13:39;98289.28;;;7.88;96.67
10348;BME280;5220;43.192;23.284;2023-02-12T12:16:10;98282.31;;;7.90;95.41
10348;BME280;5220;43.192;23.284;2023-02-12T12:18:59;98283.19;;;7.69;95.01
10348;BME280;5220;43.192;23.284;2023-02-12T12:21:53;98288.13;;;7.95;94.67
10348;BME280;5220;43.192;23.284;2023-02-12T12:24:27;98290.81;;;7.93;94.20
10348;BME280;5220;43.192;23.284;2023-02-12T12:27:00;98294.63;;;8.05;92.19
10348;BME280;5220;43.192;23.284;2023-02-12T12:29:48;98295.41;;;8.07;91.85
10348;BME280;5220;43.192;23.284;2023-02-12T12:32:17;98297.09;;;8.08;92.84
10348;BME280;5220;43.192;23.284;2023-02-12T12:34:46;98299.00;;;7.83;91.68
10348;BME280;5220;43.192;23.284;2023-02-12T12:37:28;98290.72;;;7.75;93.72
10348;BME280;5220;43.192;23.284;2023-02-12T12:40:15;98290.75;;;7.73;96.05
10348;BME280;5220;43.192;23.284;2023-02-12T12:43:00;98301.97;;;7.30;97.02
10348;BME280;5220;43.192;23.284;2023-02-12T12:48:24;98307.63;;;7.40;98.96
10348;BME280;5220;43.192;23.284;2023-02-12T12:51:08;98304.66;;;7.27;99.04
10348;BME280;5220;43.192;23.284;2023-02-12T12:53:51;98310.69;;;7.04;100.00
10348;BME280;5220;43.192;23.284;2023-02-12T12:56:32;98312.06;;;6.91;100.00
10348;BME280;5220;43.192;23.284;2023-02-12T12:59:27;98313.47;;;7.00;100.00
10348;BME280;5220;43.192;23.284;2023-02-12T13:02:31;98312.06;;;6.91;100.00
10348;BME280;5220;43.192;23.284;2023-02-12T13:08:07;98307.06;;;6.87;100.00
10348;BME280;5220;43.192;23.284;2023-02-12T13:10:47;98322.41;;;6.43;100.00
10348;BME280;5220;43.192;23.284;2023-02-12T13:13:26;98332.31;;;6.56;100.00
10348;BME280;5220;43.192;23.284;2023-02-12T13:16:01;98326.97;;;6.60;100.00
10348;BME280;5220;43.192;23.284;2023-02-12T13:18:41;98331.97;;;6.66;100.00
10348;BME280;5220;43.192;23.284;2023-02-12T13:21:13;98347.03;;;6.78;100.00
10348;BME280;5220;43.192;23.284;2023-02-12T13:23:46;98340.50;;;6.91;100.00
10348;BME280;5220;43.192;23.284;2023-02-12T13:26:19;98347.22;;;6.97;100.00
10348;BME280;5220;43.192;23.284;2023-02-12T13:28:51;98351.72;;;6.42;100.00
10348;BME280;5220;43.192;23.284;2023-02-12T13:31:22;98344.16;;;6.63;100.00
10348;BME280;5220;43.192;23.284;2023-02-12T13:33:53;98347.75;;;6.82;100.00
10348;BME280;5220;43.192;23.284;2023-02-12T13:36:21;98361.66;;;6.55;100.00